Time;durP1;ratioP1;P1;durP2;ratioP2;P2;SDS_P1;SDS_P2;PMS_P1;PMS_P2;Temp;Humidity;BMP_temperature;BMP_pressure;BME280_temperature;BME280_humidity;BME280_pressure;Samples;Min_cycle;Max_cycle;Signal;HPM_P1;HPM_P2
2021/04/19 00:02:38;;;;;;;21.02;12.00;;;8.20;99.90;;;;;;5090391;28;20047;-48
2021/04/19 00:05:42;;;;;;;19.15;13.15;;;8.10;99.90;;;;;;5090369;28;20055;-49
2021/04/19 00:08:47;;;;;;;20.23;11.90;;;8.00;99.90;;;;;;5090045;28;20051;-48
2021/04/19 00:11:53;;;;;;;21.30;12.05;;;8.00;99.90;;;;;;5090396;28;20051;-48
2021/04/19 00:14:57;;;;;;;22.08;12.52;;;8.00;99.90;;;;;;5090585;28;20422;-48
2021/04/19 00:18:02;;;;;;;18.60;11.70;;;7.90;99.90;;;;;;5104427;28;20531;-49
2021/04/19 00:21:06;;;;;;;18.73;12.25;;;7.80;99.90;;;;;;5110829;28;20043;-49
2021/04/19 00:24:10;;;;;;;21.17;13.18;;;7.70;99.90;;;;;;5110658;28;20509;-48
2021/04/19 00:27:14;;;;;;;23.25;13.32;;;7.60;99.90;;;;;;5110107;28;20393;-49
2021/04/19 00:30:21;;;;;;;19.95;13.02;;;7.60;99.90;;;;;;5109822;28;20051;-51
2021/04/19 00:33:25;;;;;;;18.70;11.75;;;7.50;99.90;;;;;;5110530;28;20055;-48
2021/04/19 00:36:30;;;;;;;21.27;12.38;;;7.30;99.90;;;;;;5110346;28;20055;-49
2021/04/19 00:39:34;;;;;;;17.48;11.63;;;7.20;99.90;;;;;;5109694;28;20042;-50
2021/04/19 00:42:39;;;;;;;20.95;12.82;;;7.10;99.90;;;;;;5109745;28;20050;-50
2021/04/19 00:45:45;;;;;;;21.10;13.27;;;7.00;99.90;;;;;;5097058;28;20054;-48
2021/04/19 00:48:49;;;;;;;19.45;12.68;;;7.00;99.90;;;;;;5109597;28;20512;-51
2021/04/19 00:51:55;;;;;;;19.98;12.80;;;6.90;99.90;;;;;;5109585;28;20039;-49
2021/04/19 00:55:00;;;;;;;21.38;12.75;;;6.80;99.90;;;;;;5110019;28;20406;-51
2021/04/19 00:58:06;;;;;;;20.30;12.63;;;6.80;99.90;;;;;;5109451;28;20039;-50
2021/04/19 01:01:11;;;;;;;21.17;12.73;;;6.70;99.90;;;;;;5110045;28;20097;-50
2021/04/19 01:04:16;;;;;;;22.83;13.73;;;6.70;99.90;;;;;;5109900;28;20043;-49
2021/04/19 01:07:23;;;;;;;21.83;14.45;;;6.70;99.90;;;;;;5097163;28;20043;-48
2021/04/19 01:10:28;;;;;;;19.75;13.38;;;6.60;99.90;;;;;;5096682;28;20055;-50
2021/04/19 01:13:33;;;;;;;20.40;14.30;;;6.60;99.90;;;;;;5109837;28;20050;-51
2021/04/19 01:16:37;;;;;;;19.85;12.70;;;6.50;99.90;;;;;;5096839;28;20414;-48
2021/04/19 01:19:43;;;;;;;20.08;12.63;;;6.50;99.90;;;;;;5097024;28;20047;-49
2021/04/19 01:22:47;;;;;;;24.38;12.57;;;6.50;99.90;;;;;;5109382;28;20047;-48
2021/04/19 01:25:53;;;;;;;19.13;12.48;;;6.50;99.90;;;;;;5097040;28;20406;-49
2021/04/19 01:28:56;;;;;;;19.92;12.05;;;6.50;99.90;;;;;;5111122;28;20516;-52
2021/04/19 01:32:01;;;;;;;21.17;12.48;;;6.40;99.90;;;;;;5113925;28;20042;-49
2021/04/19 01:35:06;;;;;;;26.25;13.27;;;6.40;99.90;;;;;;5114087;28;20050;-51
2021/04/19 01:38:12;;;;;;;21.65;13.77;;;6.30;99.90;;;;;;5101138;28;20054;-48
2021/04/19 01:41:17;;;;;;;19.85;11.90;;;6.30;99.90;;;;;;5093003;28;20051;-49
2021/04/19 01:44:21;;;;;;;19.35;12.50;;;6.30;99.90;;;;;;5093363;28;20047;-50
2021/04/19 01:47:27;;;;;;;20.42;11.93;;;6.30;99.90;;;;;;5085968;28;20118;-51
2021/04/19 01:50:33;;;;;;;20.20;12.15;;;6.20;99.90;;;;;;5108403;28;20401;-50
2021/04/19 01:53:38;;;;;;;19.02;11.52;;;6.20;99.90;;;;;;5101504;28;20054;-49
2021/04/19 01:56:43;;;;;;;22.30;12.82;;;6.20;99.90;;;;;;5100834;28;20121;-48
2021/04/19 01:59:47;;;;;;;20.63;13.13;;;6.30;99.90;;;;;;5101439;28;20063;-49
2021/04/19 02:03:06;;;;;;;21.10;12.73;;;6.30;99.90;;;;;;5101016;28;20063;-49
2021/04/19 02:06:48;;;;;;;22.20;12.88;;;6.20;99.90;;;;;;5101091;28;20042;-49
2021/04/19 02:10:07;;;;;;;17.88;12.43;;;6.10;99.90;;;;;;5100287;28;20055;-49
2021/04/19 02:13:41;;;;;;;21.88;12.70;;;6.00;99.90;;;;;;5099986;28;20035;-50
2021/04/19 02:17:05;;;;;;;20.63;13.07;;;6.00;99.90;;;;;;5100102;28;20035;-48
2021/04/19 02:20:30;;;;;;;19.08;12.63;;;6.10;99.90;;;;;;5100239;28;20429;-48
2021/04/19 02:23:39;;;;;;;23.88;13.38;;;6.10;99.90;;;;;;5099706;28;20054;-49
2021/04/19 02:26:57;;;;;;;23.33;13.80;;;6.10;99.90;;;;;;5100196;28;20038;-47
2021/04/19 02:30:07;;;;;;;21.77;14.13;;;5.90;99.90;;;;;;5099817;28;20062;-48
2021/04/19 02:33:15;;;;;;;22.25;13.38;;;5.80;99.90;;;;;;5100045;28;20050;-49
2021/04/19 02:36:21;;;;;;;20.38;13.23;;;5.70;99.90;;;;;;5099940;28;20390;-50
2021/04/19 02:39:32;;;;;;;23.55;13.02;;;5.60;99.90;;;;;;5112480;28;20519;-49
2021/04/19 02:42:42;;;;;;;22.48;13.02;;;5.60;99.90;;;;;;5098950;28;20115;-48
2021/04/19 02:45:48;;;;;;;24.02;14.23;;;5.50;99.90;;;;;;5100226;28;20293;-50
2021/04/19 02:48:58;;;;;;;25.20;14.57;;;5.50;99.90;;;;;;5100196;28;20043;-51
2021/04/19 02:52:05;;;;;;;24.23;14.25;;;5.40;99.90;;;;;;5112437;28;20509;-48
2021/04/19 02:55:12;;;;;;;25.35;14.32;;;5.50;99.90;;;;;;5112630;28;20042;-53
2021/04/19 02:58:52;;;;;;;24.40;14.55;;;5.50;99.90;;;;;;5112764;28;20051;-48
2021/04/19 03:02:06;;;;;;;24.27;14.15;;;5.50;99.90;;;;;;5099155;28;20049;-50
2021/04/19 03:05:13;;;;;;;24.00;14.80;;;5.40;99.90;;;;;;5099332;28;20409;-53
2021/04/19 03:08:20;;;;;;;23.33;14.73;;;5.40;99.90;;;;;;5099441;28;20051;-47
2021/04/19 03:11:51;;;;;;;27.38;14.02;;;5.40;99.90;;;;;;5098974;28;20397;-48
2021/04/19 03:15:03;;;;;;;24.55;14.48;;;5.40;99.90;;;;;;5099213;28;20039;-49
2021/04/19 03:18:15;;;;;;;23.88;14.30;;;5.50;99.90;;;;;;5099238;28;20205;-48
2021/04/19 03:21:28;;;;;;;26.15;13.95;;;5.50;99.90;;;;;;5098976;28;20046;-48
2021/04/19 03:24:57;;;;;;;23.88;14.40;;;5.50;99.90;;;;;;5111978;28;20046;-49
2021/04/19 03:28:07;;;;;;;22.02;14.32;;;5.60;99.90;;;;;;5098514;28;20047;-48
2021/04/19 03:31:22;;;;;;;22.88;13.70;;;5.60;99.90;;;;;;5098743;28;20046;-48
2021/04/19 03:34:32;;;;;;;21.10;13.07;;;5.50;99.90;;;;;;5099263;28;20047;-48
2021/04/19 03:37:41;;;;;;;24.30;14.00;;;5.40;99.90;;;;;;5099236;28;20051;-48
2021/04/19 03:40:47;;;;;;;24.15;13.40;;;5.30;99.90;;;;;;5098939;28;20043;-48
2021/04/19 03:44:01;;;;;;;25.00;15.25;;;5.20;99.90;;;;;;5111566;28;20093;-48
2021/04/19 03:47:06;;;;;;;24.40;14.55;;;5.10;99.90;;;;;;5098586;28;20058;-48
2021/04/19 03:50:29;;;;;;;25.98;15.05;;;5.10;99.90;;;;;;5111443;28;20035;-48
2021/04/19 03:53:37;;;;;;;27.33;15.93;;;5.00;99.90;;;;;;5111219;28;20050;-49
2021/04/19 03:56:42;;;;;;;26.63;16.15;;;4.90;99.90;;;;;;5110486;28;20508;-48
2021/04/19 04:00:02;;;;;;;27.23;16.23;;;5.00;99.90;;;;;;5098447;28;20410;-50
2021/04/19 04:03:21;;;;;;;27.73;16.73;;;4.90;99.90;;;;;;5110635;28;20042;-49
2021/04/19 04:06:46;;;;;;;30.10;17.65;;;4.90;99.90;;;;;;5110648;28;20051;-49
2021/04/19 04:09:53;;;;;;;32.10;19.20;;;4.90;99.90;;;;;;5098307;28;20043;-50
2021/04/19 04:12:58;;;;;;;32.97;18.83;;;4.80;99.90;;;;;;5110212;28;20046;-51
2021/04/19 04:16:03;;;;;;;29.38;17.30;;;4.80;99.90;;;;;;5097982;28;20046;-52
2021/04/19 04:19:31;;;;;;;30.17;16.52;;;4.70;99.90;;;;;;5112012;28;20433;-54
2021/04/19 04:22:47;;;;;;;29.15;17.15;;;4.70;99.90;;;;;;5096877;28;20425;-50
2021/04/19 04:25:53;;;;;;;30.33;18.20;;;4.90;99.90;;;;;;5110466;28;20046;-52
2021/04/19 04:29:02;;;;;;;31.73;16.90;;;5.10;99.90;;;;;;5110193;28;20402;-55
2021/04/19 04:32:13;;;;;;;30.40;18.00;;;5.00;99.90;;;;;;5097407;28;20117;-50
2021/04/19 04:35:17;;;;;;;31.35;18.15;;;4.90;99.90;;;;;;5097601;28;20042;-48
2021/04/19 04:38:26;;;;;;;28.98;16.83;;;4.90;99.90;;;;;;5097769;28;20043;-54
2021/04/19 04:41:34;;;;;;;33.53;18.08;;;4.80;99.90;;;;;;5096959;28;20042;-50
2021/04/19 04:44:40;;;;;;;34.10;18.83;;;4.90;99.90;;;;;;5110141;28;20050;-54
2021/04/19 04:48:02;;;;;;;33.95;18.52;;;4.90;99.90;;;;;;5110154;28;20047;-50
2021/04/19 04:51:17;;;;;;;37.03;19.77;;;5.00;99.90;;;;;;5098285;28;20054;-53
2021/04/19 04:54:23;;;;;;;31.98;17.63;;;5.00;99.90;;;;;;5108736;28;20292;-52
2021/04/19 04:57:28;;;;;;;32.25;18.02;;;5.00;99.90;;;;;;5109721;28;20551;-53
2021/04/19 05:00:34;;;;;;;27.55;15.88;;;5.00;99.90;;;;;;5110210;28;20050;-52
2021/04/19 05:03:40;;;;;;;29.65;16.13;;;5.00;99.90;;;;;;5106397;28;20055;-50
2021/04/19 05:06:45;;;;;;;23.65;16.15;;;5.00;99.90;;;;;;5107969;28;20047;-53
2021/04/19 05:09:49;;;;;;;24.80;16.23;;;5.10;99.90;;;;;;5108007;28;20042;-52
2021/04/19 05:12:54;;;;;;;28.70;16.33;;;5.10;99.90;;;;;;5109107;28;20050;-52
2021/04/19 05:15:59;;;;;;;25.98;15.48;;;5.20;99.90;;;;;;5108235;28;20058;-53
2021/04/19 05:19:05;;;;;;;28.95;16.17;;;5.30;99.90;;;;;;5098153;28;20050;-48
2021/04/19 05:22:09;;;;;;;24.85;15.15;;;5.60;99.90;;;;;;5105681;28;20046;-51
2021/04/19 05:25:13;;;;;;;21.92;14.25;;;7.30;99.90;;;;;;5109588;28;20046;-49
2021/04/19 05:28:20;;;;;;;27.25;14.02;;;8.80;99.90;;;;;;5109327;28;20042;-55
2021/04/19 05:31:25;;;;;;;22.80;12.57;;;10.20;99.90;;;;;;5096539;28;20063;-49
2021/04/19 05:34:29;;;;;;;21.70;11.23;;;12.40;99.90;;;;;;5108478;28;20512;-50
2021/04/19 05:37:34;;;;;;;14.82;9.95;;;14.30;99.90;;;;;;5103981;28;20046;-53
2021/04/19 05:40:38;;;;;;;18.38;12.07;;;15.80;99.90;;;;;;5094351;28;20070;-51
2021/04/19 05:43:44;;;;;;;17.40;10.93;;;16.10;99.90;;;;;;5106942;28;20501;-49
2021/04/19 05:46:48;;;;;;;19.02;12.05;;;17.00;99.90;;;;;;5105740;28;20030;-55
2021/04/19 05:49:53;;;;;;;13.35;9.90;;;17.30;98.10;;;;;;5103627;28;20039;-49
2021/04/19 05:52:59;;;;;;;17.23;11.13;;;17.50;97.10;;;;;;5106605;28;20039;-54
2021/04/19 05:56:08;;;;;;;18.98;10.77;;;18.20;95.60;;;;;;5105180;28;20054;-52
2021/04/19 05:59:14;;;;;;;16.20;10.82;;;18.80;95.80;;;;;;5103469;28;20043;-52
2021/04/19 06:02:38;;;;;;;16.88;11.43;;;18.90;95.30;;;;;;5105307;28;20398;-50
2021/04/19 06:05:53;;;;;;;16.60;11.50;;;19.50;93.50;;;;;;5106874;28;20039;-46
2021/04/19 06:09:21;;;;;;;15.80;11.15;;;20.20;93.10;;;;;;5105964;28;20039;-49
2021/04/19 06:12:49;;;;;;;20.85;11.93;;;20.70;91.70;;;;;;5075387;28;20043;-47
2021/04/19 06:16:00;;;;;;;15.90;9.40;;;20.80;90.20;;;;;;5095065;28;20043;-47
2021/04/19 06:19:10;;;;;;;12.45;9.48;;;21.20;89.10;;;;;;5110947;28;20107;-47
2021/04/19 06:22:17;;;;;;;17.23;9.77;;;21.50;89.60;;;;;;5108594;28;20043;-48
2021/04/19 06:25:23;;;;;;;13.68;10.20;;;21.30;87.90;;;;;;5097032;28;20520;-51
2021/04/19 06:28:29;;;;;;;12.95;9.65;;;21.20;86.20;;;;;;5109433;28;20059;-50
2021/04/19 06:31:36;;;;;;;12.35;10.32;;;19.60;86.40;;;;;;5108831;28;20062;-46
2021/04/19 06:34:40;;;;;;;13.32;9.10;;;16.70;91.40;;;;;;5106214;28;20046;-51
2021/04/19 06:37:56;;;;;;;14.65;9.20;;;17.50;91.50;;;;;;5109565;28;20046;-52
2021/04/19 06:41:00;;;;;;;13.18;9.50;;;18.30;91.10;;;;;;5084827;28;20050;-52
2021/04/19 06:44:04;;;;;;;11.35;8.85;;;17.80;90.60;;;;;;5099287;28;20524;-49
2021/04/19 06:47:09;;;;;;;10.05;8.73;;;18.90;90.40;;;;;;5107995;28;20055;-47
2021/04/19 06:50:14;;;;;;;14.55;10.10;;;20.20;88.70;;;;;;5109834;28;20386;-47
2021/04/19 06:53:18;;;;;;;12.85;9.57;;;20.80;85.40;;;;;;5093495;28;20046;-52
2021/04/19 06:56:28;;;;;;;10.02;8.57;;;19.40;85.50;;;;;;5109545;28;20409;-51
2021/04/19 06:59:33;;;;;;;10.27;8.75;;;20.10;86.70;;;;;;5109081;28;20042;-48
2021/04/19 07:02:57;;;;;;;10.43;8.20;;;21.60;83.60;;;;;;5108474;28;20046;-48
2021/04/19 07:06:02;;;;;;;10.13;7.97;;;22.20;79.60;;;;;;5110580;28;20047;-51
2021/04/19 07:09:12;;;;;;;10.38;7.97;;;23.30;77.50;;;;;;5109243;28;20035;-48
2021/04/19 07:12:21;;;;;;;11.07;8.27;;;23.20;76.30;;;;;;5108740;28;20599;-49
2021/04/19 07:15:27;;;;;;;13.75;10.15;;;23.90;74.90;;;;;;5106381;28;20039;-48
2021/04/19 07:18:33;;;;;;;12.45;9.30;;;24.30;72.40;;;;;;5107982;28;20074;-50
2021/04/19 07:21:38;;;;;;;7.95;6.88;;;23.80;72.70;;;;;;5106209;28;20038;-50
2021/04/19 07:24:42;;;;;;;11.15;8.07;;;23.90;72.00;;;;;;5107806;28;20047;-48
2021/04/19 07:27:48;;;;;;;9.93;8.20;;;19.10;76.70;;;;;;5107721;28;20880;-47
2021/04/19 07:31:00;;;;;;;10.55;7.53;;;19.00;78.40;;;;;;5105724;28;20039;-48
2021/04/19 07:34:18;;;;;;;9.27;7.53;;;19.60;77.30;;;;;;5103797;28;20046;-49
2021/04/19 07:37:22;;;;;;;10.43;8.15;;;20.30;78.20;;;;;;5107180;28;20042;-52
2021/04/19 07:40:43;;;;;;;10.70;8.02;;;21.30;76.60;;;;;;5107835;28;20046;-48
2021/04/19 07:43:48;;;;;;;9.85;7.28;;;21.80;76.50;;;;;;5108275;28;20070;-47
2021/04/19 07:46:52;;;;;;;8.43;7.07;;;23.40;73.10;;;;;;5106156;28;20516;-47
2021/04/19 07:50:06;;;;;;;9.10;7.47;;;24.70;71.30;;;;;;5096105;28;20508;-48
2021/04/19 07:53:10;;;;;;;8.73;7.40;;;25.50;67.80;;;;;;5094884;28;20030;-48
2021/04/19 07:56:16;;;;;;;11.48;9.75;;;26.60;67.00;;;;;;5103680;28;20046;-48
2021/04/19 07:59:32;;;;;;;9.88;8.13;;;26.60;64.30;;;;;;5109586;28;20062;-49
2021/04/19 08:02:36;;;;;;;9.80;8.77;;;25.70;63.40;;;;;;5096063;28;20678;-51
2021/04/19 08:05:45;;;;;;;11.32;9.25;;;23.20;63.80;;;;;;5107991;28;20042;-48
2021/04/19 08:08:49;;;;;;;14.10;9.45;;;21.20;68.70;;;;;;5105536;28;20035;-47
2021/04/19 08:11:58;;;;;;;13.55;10.07;;;18.60;74.50;;;;;;5104526;28;20050;-47
2021/04/19 08:15:04;;;;;;;11.80;9.23;;;17.90;76.30;;;;;;5105734;28;20773;-50
2021/04/19 08:18:19;;;;;;;12.75;9.10;;;17.20;77.80;;;;;;5105886;28;20035;-50
2021/04/19 08:21:27;;;;;;;11.48;8.05;;;16.50;79.20;;;;;;5107980;28;20046;-51
2021/04/19 08:24:31;;;;;;;13.20;8.48;;;16.80;80.90;;;;;;5106232;28;20043;-48
2021/04/19 08:27:36;;;;;;;11.13;7.82;;;17.20;79.50;;;;;;5103918;28;20394;-48
2021/04/19 08:30:42;;;;;;;10.35;8.15;;;17.40;79.60;;;;;;5107777;28;20064;-51
2021/04/19 08:33:47;;;;;;;11.43;7.72;;;17.40;78.70;;;;;;5093023;28;20397;-49
2021/04/19 08:36:51;;;;;;;20.92;15.02;;;17.50;79.40;;;;;;5103541;28;20050;-48
2021/04/19 08:39:58;;;;;;;17.90;12.95;;;17.50;79.10;;;;;;5105210;28;20051;-48
2021/04/19 08:43:06;;;;;;;11.63;8.23;;;17.40;79.50;;;;;;5107865;28;20047;-49
2021/04/19 08:46:15;;;;;;;11.15;8.07;;;17.70;79.00;;;;;;5104273;28;20039;-49
2021/04/19 08:49:19;;;;;;;10.00;7.53;;;18.30;77.50;;;;;;5106659;28;20499;-51
2021/04/19 08:52:26;;;;;;;9.77;6.82;;;19.10;75.60;;;;;;5107389;28;20047;-50
2021/04/19 08:55:30;;;;;;;10.77;7.80;;;19.30;74.90;;;;;;5106134;28;20520;-49
2021/04/19 08:58:35;;;;;;;6.05;4.82;;;19.40;71.60;;;;;;5106191;28;20051;-49
2021/04/19 09:01:43;;;;;;;5.15;4.03;;;18.80;69.60;;;;;;5105751;28;20050;-48
2021/04/19 09:05:06;;;;;;;5.65;4.38;;;18.60;70.40;;;;;;5103778;28;20106;-49
2021/04/19 09:08:18;;;;;;;7.35;3.95;;;18.30;70.60;;;;;;5107974;28;20062;-49
2021/04/19 09:11:27;;;;;;;5.20;4.07;;;19.00;71.10;;;;;;5104762;28;20043;-49
2021/04/19 09:14:37;;;;;;;5.45;3.83;;;20.00;68.70;;;;;;5090634;28;20047;-49
2021/04/19 09:17:41;;;;;;;4.80;3.50;;;20.40;68.10;;;;;;5107251;28;20115;-50
2021/04/19 09:20:51;;;;;;;4.38;3.25;;;20.10;68.30;;;;;;5103267;28;20421;-51
2021/04/19 09:23:56;;;;;;;3.00;2.70;;;22.00;67.50;;;;;;5103083;28;20042;-52
2021/04/19 09:27:01;;;;;;;4.65;3.90;;;24.30;62.30;;;;;;5105608;28;20492;-50
2021/04/19 09:30:26;;;;;;;5.13;3.33;;;23.90;59.70;;;;;;5105877;28;20956;-49
2021/04/19 09:33:31;;;;;;;3.33;3.03;;;22.60;62.60;;;;;;5106894;28;20050;-49
2021/04/19 09:36:52;;;;;;;6.05;3.10;;;22.30;63.20;;;;;;5102323;28;20059;-51
2021/04/19 09:40:02;;;;;;;3.88;3.38;;;21.80;63.10;;;;;;5104867;28;20042;-49
2021/04/19 09:43:09;;;;;;;4.55;3.55;;;21.10;63.20;;;;;;5106711;28;20039;-50
2021/04/19 09:46:16;;;;;;;4.30;3.17;;;20.30;65.00;;;;;;5094479;28;20510;-50
2021/04/19 09:49:23;;;;;;;4.88;3.50;;;19.90;65.50;;;;;;5106988;28;20062;-50
2021/04/19 09:52:28;;;;;;;3.67;3.15;;;19.40;66.40;;;;;;5110937;28;20050;-50
2021/04/19 09:55:32;;;;;;;4.65;3.33;;;19.00;67.50;;;;;;5100843;28;20058;-49
2021/04/19 09:58:42;;;;;;;5.78;3.30;;;18.50;68.90;;;;;;5108074;28;20043;-49
2021/04/19 10:01:49;;;;;;;4.57;3.20;;;18.40;69.90;;;;;;5109247;28;20046;-49
2021/04/19 10:04:54;;;;;;;3.70;3.20;;;18.30;68.00;;;;;;5110262;28;20046;-49
2021/04/19 10:08:04;;;;;;;4.55;3.35;;;18.30;67.50;;;;;;5106490;28;20105;-50
2021/04/19 10:11:09;;;;;;;4.63;3.75;;;18.20;68.30;;;;;;5110818;28;20038;-52
2021/04/19 10:14:16;;;;;;;4.53;3.10;;;18.30;68.50;;;;;;5110070;28;20049;-51
2021/04/19 10:17:27;;;;;;;3.45;2.83;;;18.60;68.40;;;;;;5108055;28;20401;-51
2021/04/19 10:20:31;;;;;;;3.47;2.77;;;19.30;68.00;;;;;;5110806;28;20043;-49
2021/04/19 10:23:39;;;;;;;3.97;2.83;;;20.00;69.10;;;;;;5109528;28;20042;-49
2021/04/19 10:26:43;;;;;;;4.95;2.92;;;21.80;65.90;;;;;;5104113;28;20496;-49
2021/04/19 10:29:48;;;;;;;3.15;2.78;;;23.20;63.30;;;;;;5110089;28;20035;-48
2021/04/19 10:32:52;;;;;;;3.83;2.70;;;26.00;60.40;;;;;;5109613;28;20042;-50
2021/04/19 10:35:56;;;;;;;3.55;2.55;;;27.60;56.50;;;;;;5109668;28;20047;-50
2021/04/19 10:39:12;;;;;;;2.80;2.42;;;26.60;53.20;;;;;;5111424;28;20501;-49
2021/04/19 10:42:23;;;;;;;2.85;2.20;;;26.20;56.00;;;;;;5111813;28;20038;-49
2021/04/19 10:45:28;;;;;;;;;;;27.00;55.50;;;;;;5110241;28;20054;-54
2021/04/19 10:48:32;;;;;;;2.75;2.55;;;25.50;52.80;;;;;;5110121;28;19923;-50
2021/04/19 10:51:38;;;;;;;3.28;2.65;;;24.70;55.90;;;;;;5108193;28;20047;-50
2021/04/19 10:54:44;;;;;;;2.88;2.58;;;23.60;57.30;;;;;;5107366;28;20049;-49
2021/04/19 10:57:48;;;;;;;3.53;2.95;;;22.70;59.30;;;;;;5104985;28;20409;-50
2021/04/19 11:00:53;;;;;;;4.63;2.92;;;21.60;61.90;;;;;;5108705;28;20058;-52
2021/04/19 11:03:59;;;;;;;3.80;2.85;;;21.00;64.70;;;;;;5109541;28;20046;-50
2021/04/19 11:07:28;;;;;;;4.47;2.80;;;20.00;64.30;;;;;;5105813;28;20031;-49
2021/04/19 11:10:33;;;;;;;6.07;3.00;;;19.10;66.60;;;;;;5107922;28;20050;-53
2021/04/19 11:13:37;;;;;;;3.55;2.90;;;18.40;67.30;;;;;;5109994;28;20504;-48
2021/04/19 11:16:52;;;;;;;3.85;2.90;;;17.90;69.00;;;;;;5107216;28;20042;-52
2021/04/19 11:19:56;;;;;;;3.75;3.03;;;17.40;69.50;;;;;;5107769;28;20047;-48
2021/04/19 11:23:01;;;;;;;2.85;2.58;;;17.30;71.10;;;;;;5107975;28;20051;-49
2021/04/19 11:26:11;;;;;;;4.80;3.15;;;17.30;71.50;;;;;;5106554;28;20042;-49
2021/04/19 11:29:38;;;;;;;3.80;3.10;;;17.50;71.20;;;;;;5107140;28;20035;-52
2021/04/19 11:32:42;;;;;;;5.82;2.92;;;18.10;70.60;;;;;;5108855;28;20048;-52
2021/04/19 11:35:49;;;;;;;3.42;2.70;;;21.00;69.70;;;;;;5105970;28;20050;-51
2021/04/19 11:38:53;;;;;;;2.72;2.13;;;24.80;63.90;;;;;;5107487;28;20054;-50
2021/04/19 11:41:57;;;;;;;3.05;2.50;;;28.30;58.20;;;;;;5109777;28;20055;-49
2021/04/19 11:45:04;;;;;;;2.72;2.05;;;30.20;55.40;;;;;;5110051;28;20047;-47
2021/04/19 11:48:13;;;;;;;4.75;2.63;;;28.60;53.40;;;;;;5105948;28;20031;-53
2021/04/19 11:51:19;;;;;;;2.85;2.55;;;25.60;56.90;;;;;;5108598;28;20043;-49
2021/04/19 11:54:23;;;;;;;2.58;2.38;;;24.00;56.70;;;;;;5110829;28;20536;-52
2021/04/19 11:57:27;;;;;;;3.53;2.72;;;22.80;58.10;;;;;;5106538;28;20063;-50
2021/04/19 12:00:32;;;;;;;3.22;2.90;;;21.80;60.40;;;;;;5109443;28;20055;-49
2021/04/19 12:03:43;;;;;;;4.03;2.65;;;20.60;61.80;;;;;;5110552;28;20047;-52
2021/04/19 12:06:47;;;;;;;4.55;3.20;;;20.00;64.20;;;;;;5096241;28;20517;-49
2021/04/19 12:09:51;;;;;;;6.47;3.10;;;19.00;65.80;;;;;;5109652;28;20042;-50
2021/04/19 12:12:55;;;;;;;6.13;3.10;;;18.60;67.70;;;;;;5107880;28;20038;-54
2021/04/19 12:16:00;;;;;;;3.00;2.70;;;18.40;69.40;;;;;;5109454;28;20405;-50
2021/04/19 12:19:04;;;;;;;4.07;2.95;;;18.40;69.10;;;;;;5107422;28;20497;-51
2021/04/19 12:22:08;;;;;;;3.10;2.80;;;18.80;67.70;;;;;;5095003;28;20035;-52
2021/04/19 12:25:13;;;;;;;5.72;2.60;;;20.30;67.10;;;;;;5109544;28;20038;-53
2021/04/19 12:28:21;;;;;;;4.38;2.50;;;20.90;64.60;;;;;;5108178;28;20401;-52
2021/04/19 12:31:26;;;;;;;4.85;2.75;;;21.10;61.70;;;;;;5107307;28;20043;-54
2021/04/19 12:34:30;;;;;;;4.13;2.60;;;20.50;61.60;;;;;;5108749;28;20046;-53
2021/04/19 12:37:34;;;;;;;4.63;2.55;;;19.80;62.90;;;;;;5107584;28;20057;-54
2021/04/19 12:40:39;;;;;;;4.00;3.58;;;19.60;65.20;;;;;;5108225;28;20527;-52
2021/04/19 12:43:44;;;;;;;3.75;3.38;;;19.80;65.30;;;;;;5107680;28;20050;-56
2021/04/19 12:46:49;;;;;;;4.05;3.17;;;19.90;65.60;;;;;;5109920;28;20039;-54
2021/04/19 12:49:53;;;;;;;4.63;3.03;;;19.70;66.80;;;;;;5108658;28;20046;-52
2021/04/19 12:52:58;;;;;;;2.92;2.50;;;19.30;67.00;;;;;;5104669;28;20047;-54
2021/04/19 12:56:03;;;;;;;4.03;3.03;;;19.00;66.70;;;;;;5108357;28;20042;-56
2021/04/19 12:59:07;;;;;;;3.08;2.67;;;18.70;66.80;;;;;;5107018;28;20050;-53
2021/04/19 13:02:12;;;;;;;3.45;2.85;;;18.70;66.70;;;;;;5109335;28;20050;-51
2021/04/19 13:05:16;;;;;;;3.38;2.72;;;19.10;68.20;;;;;;5109408;28;20062;-49
2021/04/19 13:08:20;;;;;;;2.78;2.40;;;18.80;66.80;;;;;;5105545;28;20051;-55
2021/04/19 13:11:24;;;;;;;6.72;2.97;;;19.30;65.70;;;;;;5107473;28;20042;-54
2021/04/19 13:14:33;;;;;;;4.13;2.90;;;19.50;68.10;;;;;;5108416;28;20050;-53
2021/04/19 13:17:39;;;;;;;3.58;2.65;;;20.10;66.00;;;;;;5107017;28;20058;-48
2021/04/19 13:20:43;;;;;;;3.55;3.00;;;20.10;65.70;;;;;;5105519;28;20142;-56
2021/04/19 13:23:48;;;;;;;2.92;2.60;;;20.40;66.60;;;;;;5107316;28;20043;-55
2021/04/19 13:26:53;;;;;;;3.63;2.55;;;22.00;65.10;;;;;;5109760;28;20030;-51
2021/04/19 13:29:58;;;;;;;3.10;2.30;;;23.50;63.70;;;;;;5111438;28;20043;-55
2021/04/19 13:33:02;;;;;;;3.20;2.63;;;24.00;60.40;;;;;;5113287;28;20046;-51
2021/04/19 13:36:06;;;;;;;3.40;2.30;;;23.80;61.80;;;;;;5112376;28;20038;-52
2021/04/19 13:39:10;;;;;;;2.85;2.20;;;23.70;61.90;;;;;;5111941;28;20042;-49
2021/04/19 13:42:14;;;;;;;3.92;2.22;;;23.20;62.00;;;;;;5112936;28;20425;-51
2021/04/19 13:45:20;;;;;;;2.97;2.35;;;23.00;60.60;;;;;;5112828;28;20406;-49
2021/04/19 13:48:24;;;;;;;2.30;2.10;;;22.10;60.50;;;;;;5111972;28;20046;-49
2021/04/19 13:51:28;;;;;;;4.35;2.10;;;21.70;61.70;;;;;;5112335;28;20039;-53
2021/04/19 13:54:32;;;;;;;3.78;2.30;;;20.90;62.50;;;;;;5112438;28;20632;-52
2021/04/19 13:57:36;;;;;;;5.45;2.50;;;20.40;62.30;;;;;;5108953;28;20051;-55
2021/04/19 14:00:40;;;;;;;3.22;2.17;;;19.90;63.50;;;;;;5096933;28;20051;-51
2021/04/19 14:03:44;;;;;;;2.78;2.58;;;20.10;63.50;;;;;;5112905;28;20078;-50
2021/04/19 14:06:48;;;;;;;2.17;1.80;;;20.00;64.20;;;;;;5111311;28;20504;-50
2021/04/19 14:09:52;;;;;;;4.90;2.70;;;20.20;64.60;;;;;;5109864;28;20046;-50
2021/04/19 14:12:56;;;;;;;2.63;2.10;;;20.00;61.50;;;;;;5111964;28;20047;-51
2021/04/19 14:16:01;;;;;;;2.90;2.28;;;19.90;61.40;;;;;;5111606;28;20038;-49
2021/04/19 14:19:05;;;;;;;3.45;2.60;;;19.80;62.40;;;;;;5111020;28;20047;-51
2021/04/19 14:22:10;;;;;;;3.25;2.60;;;19.50;61.80;;;;;;5112268;28;20049;-50
2021/04/19 14:25:15;;;;;;;3.47;2.58;;;19.10;63.30;;;;;;5098099;28;20050;-49
2021/04/19 14:28:21;;;;;;;3.08;2.78;;;19.10;63.40;;;;;;5110097;28;20047;-52
2021/04/19 14:31:26;;;;;;;2.85;2.28;;;19.10;62.40;;;;;;5107354;28;20034;-51
2021/04/19 14:34:32;;;;;;;3.95;2.92;;;19.30;62.80;;;;;;5101497;27;21018;-50
2021/04/19 14:37:37;;;;;;;4.97;3.70;;;19.80;64.20;;;;;;5104892;27;20050;-50
2021/04/19 14:40:41;;;;;;;7.40;5.25;;;20.30;64.10;;;;;;5103988;27;20047;-48
2021/04/19 14:43:45;;;;;;;7.60;4.60;;;20.30;66.30;;;;;;5104373;27;20316;-53
2021/04/19 14:46:50;;;;;;;6.63;4.88;;;19.90;67.80;;;;;;5103278;27;20038;-51
2021/04/19 14:49:55;;;;;;;6.55;4.07;;;19.40;67.80;;;;;;5106289;27;20047;-51
2021/04/19 14:53:00;;;;;;;3.63;2.88;;;19.40;68.80;;;;;;5109723;27;20046;-49
2021/04/19 14:56:05;;;;;;;3.28;2.70;;;19.20;66.20;;;;;;5088726;27;20046;-52
2021/04/19 14:59:09;;;;;;;5.32;2.55;;;18.50;66.20;;;;;;5067974;27;20046;-50
2021/04/19 15:02:13;;;;;;;5.20;2.67;;;17.80;67.70;;;;;;5073017;27;20043;-54
2021/04/19 15:05:19;;;;;;;4.40;2.70;;;17.40;68.80;;;;;;5096048;28;20074;-54
2021/04/19 15:08:24;;;;;;;5.32;2.63;;;17.00;68.60;;;;;;5100704;28;20501;-52
2021/04/19 15:11:28;;;;;;;2.33;1.90;;;16.60;70.10;;;;;;5099416;28;20406;-52
2021/04/19 15:14:32;;;;;;;3.88;2.03;;;16.70;69.40;;;;;;5100208;28;20568;-51
2021/04/19 15:17:36;;;;;;;3.90;2.40;;;16.90;68.80;;;;;;5076775;28;20070;-52
2021/04/19 15:20:40;;;;;;;3.15;2.40;;;17.50;67.10;;;;;;5099552;28;20062;-54
2021/04/19 15:23:49;;;;;;;2.88;1.85;;;17.70;65.40;;;;;;5094641;28;20043;-49
2021/04/19 15:27:04;;;;;;;3.10;2.40;;;17.80;65.50;;;;;;5096666;28;20362;-50
2021/04/19 15:30:12;;;;;;;3.20;2.90;;;18.30;65.20;;;;;;5107003;28;20031;-52
2021/04/19 15:33:16;;;;;;;6.13;3.22;;;18.50;68.10;;;;;;5108179;28;20417;-51
2021/04/19 15:36:22;;;;;;;9.77;3.10;;;18.30;70.30;;;;;;5081703;28;20054;-52
2021/04/19 15:39:28;;;;;;;6.03;3.45;;;17.90;70.20;;;;;;5100854;28;20042;-49
2021/04/19 15:42:33;;;;;;;3.50;2.78;;;17.70;71.50;;;;;;5098427;28;20070;-51
2021/04/19 15:45:37;;;;;;;7.80;3.67;;;17.80;71.10;;;;;;5095571;28;20051;-54
2021/04/19 15:48:41;;;;;;;14.25;3.60;;;17.80;70.20;;;;;;5082717;27;20046;-51
2021/04/19 15:51:46;;;;;;;5.40;3.15;;;17.60;71.20;;;;;;5068132;27;20063;-50
2021/04/19 15:54:51;;;;;;;8.98;3.13;;;17.50;71.30;;;;;;5088430;27;20054;-50
2021/04/19 15:57:55;;;;;;;4.10;2.92;;;17.30;68.80;;;;;;5092928;27;20038;-52
2021/04/19 16:01:00;;;;;;;5.93;3.17;;;17.20;70.20;;;;;;5084263;27;20408;-51
2021/04/19 16:04:04;;;;;;;4.53;3.40;;;17.30;70.10;;;;;;5095359;27;20050;-50
2021/04/19 16:07:09;;;;;;;4.57;3.28;;;17.10;70.50;;;;;;5087411;27;20054;-50
2021/04/19 16:10:13;;;;;;;4.80;3.67;;;16.90;69.70;;;;;;5090223;27;20047;-50